createdAt,value
2018-07-09T00:01:22.760Z,3.27
2018-07-09T00:03:52.006Z,3.67
2018-07-09T00:06:21.446Z,3.67
2018-07-09T00:08:50.765Z,5.57
2018-07-09T00:11:20.159Z,6.97
2018-07-09T00:13:49.493Z,4.57
2018-07-09T00:16:19.066Z,6.20
2018-07-09T00:18:48.327Z,3.40
2018-07-09T00:21:17.698Z,4.17
2018-07-09T00:23:46.974Z,3.43
2018-07-09T00:26:16.341Z,4.97
2018-07-09T00:28:45.591Z,4.43
2018-07-09T00:31:15.037Z,3.53
2018-07-09T00:33:44.329Z,4.37
2018-07-09T00:36:13.613Z,3.93
2018-07-09T00:38:42.896Z,5.07
2018-07-09T00:41:12.184Z,3.73
2018-07-09T00:43:41.200Z,4.10
2018-07-09T00:46:10.557Z,5.93
2018-07-09T00:48:39.846Z,5.30
2018-07-09T00:51:09.191Z,6.50
2018-07-09T00:53:38.558Z,6.00
2018-07-09T00:56:07.873Z,5.40
2018-07-09T00:58:37.165Z,3.30
2018-07-09T01:01:06.531Z,6.90
2018-07-09T01:03:35.919Z,5.10
2018-07-09T01:06:05.323Z,5.37
2018-07-09T01:08:34.647Z,4.37
2018-07-09T01:11:21.106Z,5.37
2018-07-09T01:13:50.550Z,5.17
2018-07-09T01:16:20.006Z,3.57
2018-07-09T01:18:49.422Z,3.90
2018-07-09T01:21:18.534Z,3.70
2018-07-09T01:23:47.837Z,5.83
2018-07-09T01:26:17.154Z,5.20
2018-07-09T01:28:46.437Z,5.00
2018-07-09T01:31:15.789Z,4.00
2018-07-09T01:33:45.040Z,4.80
2018-07-09T01:36:14.313Z,4.83
2018-07-09T01:38:43.551Z,6.97
2018-07-09T01:41:12.929Z,5.03
2018-07-09T01:43:41.936Z,4.30
2018-07-09T01:46:11.204Z,4.47
2018-07-09T01:48:40.560Z,4.00
2018-07-09T01:51:09.561Z,5.57
2018-07-09T01:53:38.831Z,6.53
2018-07-09T01:56:08.110Z,4.63
2018-07-09T01:58:37.367Z,4.40
2018-07-09T02:01:06.767Z,5.37
2018-07-09T02:03:36.123Z,6.83
2018-07-09T02:06:05.594Z,4.63
2018-07-09T02:08:34.876Z,4.60
2018-07-09T02:11:04.266Z,4.60
2018-07-09T02:13:33.614Z,4.50
2018-07-09T02:16:02.955Z,5.33
2018-07-09T02:18:32.381Z,4.40
2018-07-09T02:21:01.826Z,5.90
2018-07-09T02:23:31.369Z,4.97
2018-07-09T02:26:00.776Z,5.90
2018-07-09T02:28:30.276Z,3.80
2018-07-09T02:30:59.565Z,5.67
2018-07-09T02:33:28.897Z,4.83
2018-07-09T02:35:58.163Z,5.63
2018-07-09T02:38:27.423Z,5.77
2018-07-09T02:40:56.795Z,5.83
2018-07-09T02:43:26.119Z,5.50
2018-07-09T02:45:55.356Z,5.47
2018-07-09T02:48:24.691Z,8.93
2018-07-09T02:50:54.009Z,5.03
2018-07-09T02:53:23.260Z,4.67
2018-07-09T02:55:52.379Z,6.47
2018-07-09T02:58:21.690Z,5.63
2018-07-09T03:00:51.043Z,7.43
2018-07-09T03:03:20.282Z,4.67
2018-07-09T03:05:49.705Z,4.53
2018-07-09T03:08:19.101Z,6.67
2018-07-09T03:10:48.349Z,4.67
2018-07-09T03:13:17.397Z,5.27
2018-07-09T03:15:46.690Z,8.63
2018-07-09T03:18:15.962Z,4.73
2018-07-09T03:20:45.219Z,6.23
2018-07-09T03:23:14.458Z,6.67
2018-07-09T03:25:43.722Z,6.80
2018-07-09T03:28:13.004Z,5.27
2018-07-09T03:30:42.317Z,4.73
2018-07-09T03:33:11.608Z,6.90
2018-07-09T03:35:40.855Z,5.10
2018-07-09T03:38:10.206Z,5.43
2018-07-09T03:40:39.463Z,6.53
2018-07-09T03:43:08.747Z,7.37
2018-07-09T03:45:38.007Z,8.57
2018-07-09T03:48:07.345Z,7.40
2018-07-09T03:50:36.739Z,5.97
2018-07-09T03:53:06.391Z,6.80
2018-07-09T03:55:35.905Z,6.90
2018-07-09T03:58:05.417Z,6.93
2018-07-09T04:00:34.905Z,6.73
2018-07-09T04:03:04.348Z,7.77
2018-07-09T04:05:33.786Z,9.17
2018-07-09T04:08:03.145Z,6.23
2018-07-09T04:10:32.532Z,8.80
2018-07-09T04:13:01.902Z,6.07
2018-07-09T04:15:31.192Z,7.13
2018-07-09T04:18:00.497Z,6.07
2018-07-09T04:20:29.834Z,8.97
2018-07-09T04:22:59.112Z,6.13
2018-07-09T04:25:28.353Z,8.40
2018-07-09T04:27:57.697Z,7.93
2018-07-09T04:30:27.028Z,6.57
2018-07-09T04:32:56.096Z,8.07
2018-07-09T04:35:25.454Z,7.47
2018-07-09T04:37:55.082Z,7.50
2018-07-09T04:40:24.317Z,9.97
2018-07-09T04:42:53.824Z,6.97
2018-07-09T04:45:23.144Z,9.83
2018-07-09T04:47:52.509Z,9.37
2018-07-09T04:50:21.932Z,10.23
2018-07-09T04:52:51.825Z,8.03
2018-07-09T04:55:21.187Z,10.47
2018-07-09T04:57:50.449Z,8.83
2018-07-09T05:00:19.720Z,8.43
2018-07-09T05:02:49.048Z,9.47
2018-07-09T05:05:18.050Z,9.63
2018-07-09T05:07:47.178Z,7.43
2018-07-09T05:10:16.472Z,8.23
2018-07-09T05:12:45.764Z,7.83
2018-07-09T05:15:15.050Z,10.00
2018-07-09T05:17:44.438Z,10.03
2018-07-09T05:20:13.713Z,9.50
2018-07-09T05:22:43.083Z,8.57
2018-07-09T05:25:12.465Z,12.67
2018-07-09T05:27:41.739Z,8.90
2018-07-09T05:30:11.021Z,9.30
2018-07-09T05:32:40.342Z,7.17
2018-07-09T05:35:09.666Z,9.93
2018-07-09T05:37:38.940Z,9.73
2018-07-09T05:40:08.466Z,8.53
2018-07-09T05:42:38.119Z,10.37
2018-07-09T05:45:07.820Z,8.67
2018-07-09T05:47:37.215Z,7.10
2018-07-09T05:50:06.378Z,8.83
2018-07-09T05:52:35.751Z,9.10
2018-07-09T05:55:05.283Z,9.60
2018-07-09T05:57:34.574Z,9.10
2018-07-09T06:00:04.003Z,10.00
2018-07-09T06:02:33.423Z,8.00
2018-07-09T06:05:02.849Z,8.53
2018-07-09T06:07:32.491Z,8.97
2018-07-09T06:10:02.109Z,7.57
2018-07-09T06:12:31.543Z,7.40
2018-07-09T06:15:01.621Z,8.20
2018-07-09T06:17:30.954Z,9.23
2018-07-09T06:20:00.478Z,8.53
2018-07-09T06:22:29.896Z,8.33
2018-07-09T06:24:59.213Z,6.57
2018-07-09T06:27:28.574Z,7.70
2018-07-09T06:29:57.826Z,6.57
2018-07-09T06:32:27.115Z,6.73
2018-07-09T06:34:56.581Z,7.07
2018-07-09T06:37:25.971Z,7.93
2018-07-09T06:39:55.339Z,8.60
2018-07-09T06:42:24.714Z,7.57
2018-07-09T06:44:54.180Z,6.63
2018-07-09T06:47:23.651Z,7.23
2018-07-09T06:49:52.966Z,9.33
2018-07-09T06:52:22.282Z,9.63
2018-07-09T06:54:51.645Z,7.10
2018-07-09T06:57:20.962Z,5.97
2018-07-09T06:59:50.286Z,4.27
2018-07-09T07:02:19.656Z,5.57
2018-07-09T07:04:49.060Z,4.17
2018-07-09T07:07:18.399Z,5.03
2018-07-09T07:09:47.797Z,5.47
2018-07-09T07:12:18.128Z,5.20
2018-07-09T07:14:47.459Z,6.93
2018-07-09T07:17:16.715Z,4.53
2018-07-09T07:19:46.176Z,5.67
2018-07-09T07:22:15.439Z,4.20
2018-07-09T07:24:44.751Z,4.83
2018-07-09T07:27:14.018Z,5.90
2018-07-09T07:29:43.342Z,4.80
2018-07-09T07:32:12.739Z,7.00
2018-07-09T07:34:41.727Z,7.83
2018-07-09T07:37:11.028Z,6.13
2018-07-09T07:39:40.344Z,5.70
2018-07-09T07:42:09.594Z,5.40
2018-07-09T07:44:38.903Z,7.93
2018-07-09T07:47:08.294Z,5.83
2018-07-09T07:49:37.646Z,14.63
2018-07-09T07:52:07.059Z,5.47
2018-07-09T07:54:36.357Z,3.97
2018-07-09T07:57:05.922Z,6.90
2018-07-09T07:59:35.430Z,5.50
2018-07-09T08:02:04.756Z,4.40
2018-07-09T08:04:34.164Z,5.20
2018-07-09T08:07:03.741Z,6.20
2018-07-09T08:09:33.297Z,4.07
2018-07-09T08:12:59.667Z,4.27
2018-07-09T08:14:32.050Z,5.70
2018-07-09T08:17:01.510Z,3.73
2018-07-09T08:19:30.808Z,4.47
2018-07-09T08:22:00.207Z,5.23
2018-07-09T08:24:29.493Z,5.70
2018-07-09T08:26:58.897Z,3.30
2018-07-09T08:29:28.202Z,5.43
2018-07-09T08:31:57.359Z,3.50
2018-07-09T08:34:26.833Z,5.03
2018-07-09T08:36:56.248Z,4.77
2018-07-09T08:39:25.637Z,5.40
2018-07-09T08:41:54.963Z,5.03
2018-07-09T08:44:24.258Z,4.90
2018-07-09T08:46:53.611Z,5.77
2018-07-09T08:49:23.021Z,4.00
2018-07-09T08:51:52.397Z,7.20
2018-07-09T08:54:21.660Z,5.47
2018-07-09T08:56:50.922Z,5.00
2018-07-09T08:59:20.197Z,4.10
2018-07-09T09:01:49.595Z,4.63
2018-07-09T09:04:19.435Z,4.70
2018-07-09T09:06:48.707Z,4.33
2018-07-09T09:09:18.030Z,4.93
2018-07-09T09:11:47.332Z,4.60
2018-07-09T09:14:16.626Z,5.33
2018-07-09T09:16:46.006Z,4.90
2018-07-09T09:19:15.327Z,3.93
2018-07-09T09:21:47.372Z,3.93
2018-07-09T09:24:16.625Z,3.40
2018-07-09T09:26:46.030Z,3.07
2018-07-09T09:29:15.284Z,3.10
2018-07-09T09:31:44.534Z,3.70
2018-07-09T09:34:13.869Z,4.70
2018-07-09T09:36:43.174Z,3.70
2018-07-09T09:39:12.502Z,3.50
2018-07-09T09:41:41.759Z,5.47
2018-07-09T09:44:11.560Z,4.27
2018-07-09T09:46:40.923Z,5.20
2018-07-09T09:49:10.369Z,3.17
2018-07-09T09:51:39.715Z,3.03
2018-07-09T09:54:08.967Z,2.80
2018-07-09T09:56:38.289Z,4.20
2018-07-09T09:59:07.740Z,3.67
2018-07-09T10:01:37.087Z,6.53
2018-07-09T10:04:06.888Z,3.87
2018-07-09T10:06:36.460Z,2.73
2018-07-09T10:09:06.901Z,5.63
2018-07-09T10:11:36.400Z,2.43
2018-07-09T10:14:05.822Z,2.70
2018-07-09T10:16:35.126Z,4.60
2018-07-09T10:19:05.311Z,2.73
2018-07-09T10:21:34.672Z,2.63
2018-07-09T10:24:04.097Z,3.27
2018-07-09T10:26:33.483Z,3.03
2018-07-09T10:29:03.093Z,3.57
2018-07-09T10:31:32.501Z,4.03
2018-07-09T10:34:02.170Z,3.87
2018-07-09T10:36:31.615Z,4.33
2018-07-09T10:39:01.076Z,3.40
2018-07-09T10:41:30.612Z,3.90
2018-07-09T10:44:00.013Z,5.83
2018-07-09T10:46:29.336Z,3.77
2018-07-09T10:48:58.624Z,9.17
2018-07-09T10:51:27.866Z,6.73
2018-07-09T10:53:57.570Z,4.03
2018-07-09T10:56:27.121Z,5.53
2018-07-09T10:58:56.419Z,5.53
2018-07-09T11:01:25.855Z,4.67
2018-07-09T11:03:55.235Z,6.30
2018-07-09T11:06:24.590Z,8.10
2018-07-09T11:08:54.092Z,5.67
2018-07-09T11:11:24.354Z,5.83
2018-07-09T11:13:53.645Z,4.53
2018-07-09T11:16:23.048Z,7.67
2018-07-09T11:18:52.375Z,10.23
2018-07-09T11:21:21.675Z,7.10
2018-07-09T11:23:50.991Z,6.93
2018-07-09T11:26:20.335Z,4.63
2018-07-09T11:28:49.720Z,4.03
2018-07-09T11:31:19.017Z,2.93
2018-07-09T11:33:48.292Z,5.27
2018-07-09T11:36:17.622Z,9.83
2018-07-09T11:38:46.943Z,4.03
2018-07-09T11:41:16.204Z,4.43
2018-07-09T11:43:45.503Z,5.23
2018-07-09T11:46:14.805Z,3.97
2018-07-09T11:48:44.113Z,5.53
2018-07-09T11:51:13.564Z,4.80
2018-07-09T11:53:42.918Z,3.93
2018-07-09T11:56:12.330Z,3.57
2018-07-09T11:58:41.861Z,3.23
2018-07-09T12:01:11.386Z,6.30
2018-07-09T12:03:40.809Z,6.87
2018-07-09T12:06:10.257Z,5.13
2018-07-09T12:08:39.677Z,4.77
2018-07-09T12:11:09.343Z,5.03
2018-07-09T12:13:38.705Z,4.53
2018-07-09T12:16:08.336Z,3.53
2018-07-09T12:18:37.929Z,4.33
2018-07-09T12:21:07.518Z,3.33
2018-07-09T12:23:37.119Z,3.87
2018-07-09T12:26:06.718Z,3.63
2018-07-09T12:28:36.264Z,5.77
2018-07-09T12:31:06.172Z,5.40
2018-07-09T12:33:35.899Z,4.60
2018-07-09T12:36:07.152Z,3.90
2018-07-09T12:38:36.788Z,3.50
2018-07-09T12:41:06.874Z,5.30
2018-07-09T12:43:36.403Z,3.20
2018-07-09T12:46:06.152Z,3.97
2018-07-09T12:48:35.766Z,7.30
2018-07-09T12:51:05.367Z,3.70
2018-07-09T12:53:34.961Z,3.67
2018-07-09T12:56:04.567Z,4.50
2018-07-09T12:58:34.445Z,3.37
2018-07-09T13:01:04.299Z,5.13
2018-07-09T13:03:34.354Z,6.17
2018-07-09T13:06:04.042Z,4.40
2018-07-09T13:08:33.844Z,3.10
2018-07-09T13:11:03.677Z,3.70
2018-07-09T13:13:33.641Z,4.07
2018-07-09T13:16:03.350Z,4.33
2018-07-09T13:18:32.991Z,5.80
2018-07-09T13:21:02.531Z,3.53
2018-07-09T13:23:32.436Z,3.40
2018-07-09T13:26:02.061Z,3.30
2018-07-09T13:28:31.704Z,3.53
2018-07-09T13:31:01.282Z,5.43
2018-07-09T13:33:30.407Z,3.67
2018-07-09T13:35:59.907Z,3.03
2018-07-09T13:38:30.202Z,5.90
2018-07-09T13:40:59.554Z,4.10
2018-07-09T13:43:28.919Z,8.73
2018-07-09T13:45:58.453Z,4.37
2018-07-09T13:48:28.069Z,4.83
2018-07-09T13:50:57.636Z,5.63
2018-07-09T13:53:27.103Z,4.10
2018-07-09T13:58:53.547Z,5.60
2018-07-09T14:01:22.911Z,3.70
2018-07-09T14:03:52.369Z,3.83
2018-07-09T14:06:21.745Z,3.83
2018-07-09T14:08:51.001Z,5.33
2018-07-09T14:11:20.229Z,3.53
2018-07-09T14:13:49.513Z,5.07
2018-07-09T14:16:18.962Z,5.70
2018-07-09T14:18:48.317Z,4.03
2018-07-09T14:21:17.581Z,4.23
2018-07-09T14:23:46.957Z,4.30
2018-07-09T14:26:16.329Z,5.30
2018-07-09T14:28:45.635Z,4.07
2018-07-09T14:31:14.920Z,3.23
2018-07-09T14:33:44.228Z,4.93
2018-07-09T14:36:13.521Z,3.00
2018-07-09T14:38:42.869Z,2.80
2018-07-09T14:41:12.164Z,2.77
2018-07-09T14:43:41.510Z,2.77
2018-07-09T14:46:10.858Z,2.63
2018-07-09T14:48:40.109Z,2.10
2018-07-09T14:51:09.415Z,3.27
2018-07-09T14:53:38.720Z,2.50
2018-07-09T14:56:08.007Z,3.77
2018-07-09T14:58:37.495Z,3.17
2018-07-09T15:01:07.065Z,6.90
2018-07-09T15:03:36.377Z,6.83
2018-07-09T15:06:05.856Z,4.27
2018-07-09T15:08:35.199Z,2.07
2018-07-09T15:11:04.639Z,3.13
2018-07-09T15:13:34.074Z,5.77
2018-07-09T15:16:03.599Z,2.40
2018-07-09T15:18:32.937Z,2.70
2018-07-09T15:21:02.295Z,3.00
2018-07-09T15:23:31.600Z,2.70
2018-07-09T15:26:00.917Z,2.10
2018-07-09T15:28:30.362Z,2.20
2018-07-09T15:30:59.709Z,1.77
2018-07-09T15:33:28.971Z,2.07
2018-07-09T15:35:58.327Z,1.43
2018-07-09T15:38:27.621Z,2.87
2018-07-09T15:40:56.881Z,2.90
2018-07-09T15:43:45.799Z,2.87
2018-07-09T15:46:15.053Z,2.20
2018-07-09T15:48:44.333Z,4.07
2018-07-09T15:51:13.629Z,8.50
2018-07-09T15:53:42.932Z,6.43
2018-07-09T15:56:12.195Z,3.40
2018-07-09T15:58:41.558Z,5.93
2018-07-09T16:01:10.928Z,6.73
2018-07-09T16:03:40.209Z,6.03
2018-07-09T16:06:09.555Z,8.93
2018-07-09T16:08:38.873Z,2.33
2018-07-09T16:11:08.494Z,3.07
2018-07-09T16:13:37.894Z,3.20
2018-07-09T16:16:08.576Z,3.83
2018-07-09T16:18:38.444Z,3.63
2018-07-09T16:21:08.937Z,3.67
2018-07-09T16:23:38.666Z,1.90
2018-07-09T16:26:08.478Z,2.00
2018-07-09T16:28:37.819Z,2.40
2018-07-09T16:31:07.570Z,1.90
2018-07-09T16:33:37.130Z,1.80
2018-07-09T16:36:06.501Z,2.00
2018-07-09T16:38:36.086Z,1.70
2018-07-09T16:41:05.504Z,2.57
2018-07-09T16:43:35.089Z,2.80
2018-07-09T16:46:04.486Z,3.47
2018-07-09T16:48:33.961Z,3.00
2018-07-09T16:51:03.370Z,1.70
2018-07-09T16:53:32.816Z,2.37
2018-07-09T16:56:02.518Z,2.23
2018-07-09T16:58:31.984Z,2.40
2018-07-09T17:01:01.548Z,2.60
2018-07-09T17:03:30.891Z,2.07
2018-07-09T17:06:00.310Z,2.13
2018-07-09T17:08:29.731Z,5.57
2018-07-09T17:10:59.262Z,2.03
2018-07-09T17:13:28.585Z,2.60
2018-07-09T17:15:57.845Z,3.80
2018-07-09T17:18:27.139Z,1.93
2018-07-09T17:20:56.444Z,2.93
2018-07-09T17:23:25.713Z,2.47
2018-07-09T17:25:55.006Z,2.63
2018-07-09T17:28:24.527Z,3.07
2018-07-09T17:30:53.957Z,1.90
2018-07-09T17:33:23.400Z,2.57
2018-07-09T17:35:52.690Z,2.30
2018-07-09T17:38:22.092Z,3.33
2018-07-09T17:40:51.412Z,2.10
2018-07-09T17:43:20.800Z,3.40
2018-07-09T17:45:50.141Z,3.40
2018-07-09T17:48:19.791Z,2.60
2018-07-09T17:50:49.486Z,2.40
2018-07-09T17:53:18.899Z,2.27
2018-07-09T17:55:48.327Z,2.03
2018-07-09T17:58:17.755Z,2.30
2018-07-09T18:00:47.150Z,3.30
2018-07-09T18:03:16.603Z,2.30
2018-07-09T18:05:46.029Z,3.37
2018-07-09T18:08:15.907Z,2.83
2018-07-09T18:10:45.025Z,3.53
2018-07-09T18:13:14.454Z,3.00
2018-07-09T18:15:43.936Z,2.63
2018-07-09T18:18:13.303Z,2.53
2018-07-09T18:20:42.798Z,5.40
2018-07-09T18:23:12.172Z,3.87
2018-07-09T18:25:41.533Z,2.97
2018-07-09T18:28:11.907Z,3.13
2018-07-09T18:30:41.413Z,2.90
2018-07-09T18:33:11.227Z,3.77
2018-07-09T18:35:40.755Z,3.13
2018-07-09T18:38:10.116Z,4.00
2018-07-09T18:40:39.623Z,3.83
2018-07-09T18:43:09.115Z,3.00
2018-07-09T18:45:38.550Z,3.90
2018-07-09T18:48:08.129Z,4.17
2018-07-09T18:50:37.717Z,3.17
2018-07-09T18:53:07.530Z,5.17
2018-07-09T18:55:37.289Z,3.20
2018-07-09T18:58:07.080Z,3.70
2018-07-09T19:00:36.446Z,2.57
2018-07-09T19:03:06.344Z,3.20
2018-07-09T19:05:52.531Z,3.33
2018-07-09T19:08:22.121Z,2.93
2018-07-09T19:10:51.578Z,3.10
2018-07-09T19:13:21.236Z,4.40
2018-07-09T19:15:50.658Z,3.50
2018-07-09T19:18:37.186Z,3.30
2018-07-09T19:21:34.758Z,5.03
2018-07-09T19:24:03.593Z,3.53
2018-07-09T19:26:31.447Z,4.93
2018-07-09T19:28:59.699Z,6.23
2018-07-09T19:31:27.710Z,4.27
2018-07-09T19:33:55.519Z,5.10
2018-07-09T19:36:23.617Z,4.07
2018-07-09T19:38:51.397Z,4.50
2018-07-09T19:41:19.204Z,5.10
2018-07-09T19:43:47.137Z,5.27
2018-07-09T19:46:14.874Z,5.73
2018-07-09T19:48:42.652Z,4.27
2018-07-09T19:51:10.414Z,4.77
2018-07-09T19:53:38.232Z,4.57
2018-07-09T19:56:06.015Z,4.73
2018-07-09T19:58:33.868Z,4.90
2018-07-09T20:01:01.763Z,5.47
2018-07-09T20:03:29.529Z,6.37
2018-07-09T20:05:57.242Z,4.27
2018-07-09T20:08:30.207Z,5.53
2018-07-09T20:11:03.406Z,4.90
2018-07-09T20:14:01.424Z,4.47
2018-07-09T20:16:34.413Z,4.17
2018-07-09T20:19:02.965Z,4.63
2018-07-09T20:21:30.915Z,4.33
2018-07-09T20:23:58.872Z,6.10
2018-07-09T20:26:26.599Z,4.80
2018-07-09T20:28:54.313Z,5.10
2018-07-09T20:31:22.140Z,6.03
2018-07-09T20:33:49.883Z,5.93
2018-07-09T20:36:18.107Z,8.07
2018-07-09T20:38:45.827Z,5.20
2018-07-09T20:41:13.571Z,7.63
2018-07-09T20:43:41.273Z,7.53
2018-07-09T20:46:08.973Z,8.00
2018-07-09T20:48:36.687Z,6.27
2018-07-09T20:51:04.449Z,6.10
2018-07-09T20:53:32.217Z,4.80
2018-07-09T20:56:00.091Z,5.73
2018-07-09T20:58:27.817Z,4.73
2018-07-09T21:00:55.528Z,6.97
2018-07-09T21:03:23.260Z,4.17
2018-07-09T21:05:50.951Z,4.70
2018-07-09T21:08:18.668Z,5.20
2018-07-09T21:10:46.343Z,4.00
2018-07-09T21:13:14.050Z,4.50
2018-07-09T21:15:41.889Z,5.97
2018-07-09T21:18:09.534Z,7.20
2018-07-09T21:20:37.233Z,4.13
2018-07-09T21:23:04.963Z,5.40
2018-07-09T21:25:32.693Z,5.03
2018-07-09T21:28:00.429Z,5.93
2018-07-09T21:30:28.145Z,6.00
2018-07-09T21:32:55.852Z,5.60
2018-07-09T21:35:23.605Z,4.53
2018-07-09T21:37:51.439Z,5.43
2018-07-09T21:40:19.055Z,4.67
2018-07-09T21:42:46.762Z,3.93
2018-07-09T21:45:14.454Z,3.70
2018-07-09T21:47:42.209Z,3.50
2018-07-09T21:50:10.201Z,4.50
2018-07-09T21:52:37.946Z,3.43
2018-07-09T21:55:05.659Z,5.00
2018-07-09T21:57:33.402Z,4.00
2018-07-09T22:00:01.313Z,8.80
2018-07-09T22:02:29.009Z,11.23
2018-07-09T22:04:56.703Z,14.90
2018-07-09T22:07:24.434Z,5.33
2018-07-09T22:09:52.119Z,3.93
2018-07-09T22:12:19.894Z,4.27
2018-07-09T22:14:47.637Z,3.63
2018-07-09T22:17:15.355Z,5.00
2018-07-09T22:19:43.035Z,6.33
2018-07-09T22:22:10.756Z,9.23
2018-07-09T22:24:38.498Z,5.20
2018-07-09T22:27:06.175Z,3.60
2018-07-09T22:29:33.885Z,5.83
2018-07-09T22:32:03.363Z,2.73
2018-07-09T22:34:32.676Z,4.87
2018-07-09T22:37:02.209Z,3.03
2018-07-09T22:39:31.489Z,3.30
2018-07-09T22:42:00.838Z,3.47
2018-07-09T22:44:30.232Z,3.23
2018-07-09T22:46:59.566Z,5.30
2018-07-09T22:49:28.806Z,5.57
2018-07-09T22:51:58.284Z,5.50
2018-07-09T22:54:27.527Z,2.10
2018-07-09T22:56:56.820Z,5.33
2018-07-09T22:59:26.127Z,5.77
2018-07-09T23:01:55.376Z,2.60
2018-07-09T23:04:24.649Z,3.03
2018-07-09T23:06:54.141Z,4.20
2018-07-09T23:10:09.563Z,4.00
2018-07-09T23:16:36.904Z,2.40
2018-07-09T23:19:26.962Z,4.67
2018-07-09T23:22:26.987Z,2.83
2018-07-09T23:24:54.749Z,2.20
2018-07-09T23:27:22.476Z,7.00
2018-07-09T23:29:51.147Z,7.90
2018-07-09T23:32:18.953Z,3.43
2018-07-09T23:34:46.635Z,6.97
2018-07-09T23:37:14.348Z,3.87
2018-07-09T23:39:42.035Z,4.37
2018-07-09T23:42:09.750Z,3.67
2018-07-09T23:44:37.437Z,5.87
2018-07-09T23:47:05.149Z,2.93
2018-07-09T23:49:32.847Z,3.93
2018-07-09T23:52:00.583Z,3.83
2018-07-09T23:54:28.296Z,3.60
2018-07-09T23:59:17.653Z,4.43
